Terminal Aerodrome Forecast
Issued by NWS Twin Cities, MN

Home | Current Version | Previous Version | Graphics & Text | Print | Product List | Glossary On
Versions: 1 2 3 4 5 6 7 8 9 10 11 12 13 14 15 16 17 18 19 20 21 22 23 24
000
FTUS43 KMPX 021446 AAA
TAFMSP
TAF AMD
KMSP 021446Z 0215/0318 22011KT P6SM SCT150
     FM021530 26012G20KT P6SM SCT060 BKN150
     FM030200 31009KT P6SM SKC
     FM030600 29005KT P6SM SKC
     FM031500 31012G19KT P6SM SKC=

USA.gov is the U.S. government's official web portal to all federal, state and local government web resources and services.